Time;durP1;ratioP1;P1;durP2;ratioP2;P2;SDS_P1;SDS_P2;PMS_P1;PMS_P2;Temp;Humidity;BMP_temperature;BMP_pressure;BME280_temperature;BME280_humidity;BME280_pressure;Samples;Min_cycle;Max_cycle;Signal;HPM_P1;HPM_P2
2023/01/13 00:01:39;;;;;;;;;;;;;;;;;;6165883;23;19987;-79
2023/01/13 00:04:04;;;;;;;;;;;;;;;;;;6241182;23;19911;-78
2023/01/13 00:06:30;;;;;;;;;;;;;;;;;;6241680;23;19922;-78
2023/01/13 00:08:56;;;;;;;;;;;;;;;;;;6214761;23;19918;-80
2023/01/13 00:11:23;;;;;;;;;;;;;;;;;;6242485;23;19943;-79
2023/01/13 00:13:49;;;;;;;;;;;;;;;;;;6216019;23;19912;-78
2023/01/13 00:16:14;;;;;;;;;;;;;;;;;;6243051;23;20548;-81
2023/01/13 00:18:40;;;;;;;;;;;;;;;;;;6242359;23;19926;-78
2023/01/13 00:21:05;;;;;;;;;;;;;;;;;;6216054;23;19912;-78
2023/01/13 00:23:31;;;;;;;;;;;;;;;;;;6241425;23;20348;-78
2023/01/13 00:25:57;;;;;;;;;;;;;;;;;;6241026;23;19911;-78
2023/01/13 00:28:22;;;;;;;;;;;;;;;;;;6215448;23;19908;-78
2023/01/13 00:30:48;;;;;;;;;;;;;;;;;;6241858;23;20329;-79
2023/01/13 00:33:14;;;;;;;;;;;;;;;;;;6216700;23;19911;-80
2023/01/13 00:35:39;;;;;;;;;;;;;;;;;;6243892;23;19919;-79
2023/01/13 00:38:05;;;;;;;;;;;;;;;;;;6216400;23;20353;-79
2023/01/13 00:40:31;;;;;;;;;;;;;;;;;;6244634;23;19911;-79
2023/01/13 00:45:41;;;;;;;;;;;;;;;;;;6243397;23;19916;-77
2023/01/13 00:48:07;;;;;;;;;;;;;;;;;;6216081;23;19912;-79
2023/01/13 00:50:32;;;;;;;;;;;;;;;;;;6243206;23;19912;-79
2023/01/13 00:52:59;;;;;;;;;;;;;;;;;;6215100;23;19937;-79
2023/01/13 00:55:25;;;;;;;;;;;;;;;;;;6215501;23;20392;-78
2023/01/13 00:57:50;;;;;;;;;;;;;;;;;;6242377;23;20411;-78
2023/01/13 01:00:16;;;;;;;;;;;;;;;;;;6242828;23;19911;-79
2023/01/13 01:02:42;;;;;;;;;;;;;;;;;;6216133;23;19994;-78
2023/01/13 01:05:08;;;;;;;;;;;;;;;;;;6242681;23;19911;-77
2023/01/13 01:07:34;;;;;;;;;;;;;;;;;;6241564;23;20018;-77
2023/01/13 01:09:59;;;;;;;;;;;;;;;;;;6241136;23;19954;-76
2023/01/13 01:12:25;;;;;;;;;;;;;;;;;;6241860;23;19955;-77
2023/01/13 01:14:51;;;;;;;;;;;;;;;;;;6214802;23;19915;-78
2023/01/13 01:17:16;;;;;;;;;;;;;;;;;;6240479;23;20368;-77
2023/01/13 01:19:42;;;;;;;;;;;;;;;;;;6241379;23;19915;-79
2023/01/13 01:22:07;;;;;;;;;;;;;;;;;;6240497;23;20294;-77
2023/01/13 01:24:34;;;;;;;;;;;;;;;;;;6241994;23;19919;-78
2023/01/13 01:26:59;;;;;;;;;;;;;;;;;;6216965;23;19911;-78
2023/01/13 01:29:25;;;;;;;;;;;;;;;;;;6242700;23;19912;-77
2023/01/13 01:31:51;;;;;;;;;;;;;;;;;;6242636;23;19911;-78
2023/01/13 01:34:17;;;;;;;;;;;;;;;;;;6243608;23;20263;-80
2023/01/13 01:36:42;;;;;;;;;;;;;;;;;;6243047;23;19926;-79
2023/01/13 01:39:08;;;;;;;;;;;;;;;;;;6242006;23;19919;-77
2023/01/13 01:41:34;;;;;;;;;;;;;;;;;;6217012;23;19915;-77
2023/01/13 01:44:02;;;;;;;;;;;;;;;;;;6243294;23;19942;-77
2023/01/13 01:46:28;;;;;;;;;;;;;;;;;;6243670;23;19918;-78
2023/01/13 01:48:54;;;;;;;;;;;;;;;;;;6215268;23;19911;-77
2023/01/13 01:51:19;;;;;;;;;;;;;;;;;;6242342;23;20103;-79
2023/01/13 01:53:46;;;;;;;;;;;;;;;;;;6214326;23;19935;-77
2023/01/13 01:56:12;;;;;;;;;;;;;;;;;;6241657;23;20451;-81
2023/01/13 01:58:38;;;;;;;;;;;;;;;;;;6241151;23;19918;-78
2023/01/13 02:01:03;;;;;;;;;;;;;;;;;;6241165;23;19919;-78
2023/01/13 02:03:29;;;;;;;;;;;;;;;;;;6241658;23;19998;-80
2023/01/13 02:05:55;;;;;;;;;;;;;;;;;;6242407;23;19907;-78
2023/01/13 02:08:20;;;;;;;;;;;;;;;;;;6242516;23;20360;-78
2023/01/13 02:10:46;;;;;;;;;;;;;;;;;;6242627;23;19915;-78
2023/01/13 02:13:12;;;;;;;;;;;;;;;;;;6242836;23;19912;-79
2023/01/13 02:15:37;;;;;;;;;;;;;;;;;;6243577;23;19919;-79
2023/01/13 02:18:03;;;;;;;;;;;;;;;;;;6242848;23;19997;-78
2023/01/13 02:20:29;;;;;;;;;;;;;;;;;;6242149;23;20006;-78
2023/01/13 02:22:54;;;;;;;;;;;;;;;;;;6215097;23;19998;-78
2023/01/13 02:25:20;;;;;;;;;;;;;;;;;;6215693;23;19916;-78
2023/01/13 02:27:46;;;;;;;;;;;;;;;;;;6215000;23;19995;-77
2023/01/13 02:32:56;;;;;;;;;;;;;;;;;;6241795;23;19919;-78
2023/01/13 02:35:22;;;;;;;;;;;;;;;;;;6243251;23;20638;-78
2023/01/13 02:37:47;;;;;;;;;;;;;;;;;;6214239;23;19919;-77
2023/01/13 02:40:13;;;;;;;;;;;;;;;;;;6243059;23;19941;-78
2023/01/13 02:45:23;;;;;;;;;;;;;;;;;;6218979;23;19994;-77
2023/01/13 02:47:49;;;;;;;;;;;;;;;;;;6249302;23;20389;-78
2023/01/13 02:50:16;;;;;;;;;;;;;;;;;;6256180;23;19912;-77
2023/01/13 02:52:42;;;;;;;;;;;;;;;;;;6256281;23;19911;-78
2023/01/13 02:55:07;;;;;;;;;;;;;;;;;;6256909;23;19919;-76
2023/01/13 02:57:33;;;;;;;;;;;;;;;;;;6255686;23;19926;-78
2023/01/13 02:59:59;;;;;;;;;;;;;;;;;;6257067;23;20434;-79
2023/01/13 03:02:24;;;;;;;;;;;;;;;;;;6226813;23;19912;-79
2023/01/13 03:04:50;;;;;;;;;;;;;;;;;;6244568;23;19959;-79
2023/01/13 03:07:15;;;;;;;;;;;;;;;;;;6245154;23;19912;-79
2023/01/13 03:09:41;;;;;;;;;;;;;;;;;;6245285;23;19908;-79
2023/01/13 03:12:07;;;;;;;;;;;;;;;;;;6218902;23;19998;-79
2023/01/13 03:14:32;;;;;;;;;;;;;;;;;;6219617;23;19973;-79
2023/01/13 03:16:58;;;;;;;;;;;;;;;;;;6245382;23;20340;-79
2023/01/13 03:19:24;;;;;;;;;;;;;;;;;;6245574;23;19912;-78
2023/01/13 03:21:49;;;;;;;;;;;;;;;;;;6192254;23;20333;-80
2023/01/13 03:24:15;;;;;;;;;;;;;;;;;;6244954;23;20230;-79
2023/01/13 03:26:40;;;;;;;;;;;;;;;;;;6245164;23;19922;-81
2023/01/13 03:29:06;;;;;;;;;;;;;;;;;;6218961;23;19972;-79
2023/01/13 03:31:32;;;;;;;;;;;;;;;;;;6245968;23;20379;-80
2023/01/13 03:33:58;;;;;;;;;;;;;;;;;;6245528;23;19912;-79
2023/01/13 03:36:24;;;;;;;;;;;;;;;;;;6244018;23;19951;-77
2023/01/13 03:38:50;;;;;;;;;;;;;;;;;;6242635;23;19926;-78
2023/01/13 03:41:16;;;;;;;;;;;;;;;;;;6243274;23;19912;-79
2023/01/13 03:46:26;;;;;;;;;;;;;;;;;;6245415;23;19918;-78
2023/01/13 03:48:51;;;;;;;;;;;;;;;;;;6216541;23;19911;-79
2023/01/13 03:51:17;;;;;;;;;;;;;;;;;;6215348;23;20042;-79
2023/01/13 03:53:42;;;;;;;;;;;;;;;;;;6242634;23;19912;-79
2023/01/13 03:56:08;;;;;;;;;;;;;;;;;;6242964;23;19970;-78
2023/01/13 03:58:34;;;;;;;;;;;;;;;;;;6245583;23;19935;-79
2023/01/13 04:00:59;;;;;;;;;;;;;;;;;;6242062;23;19973;-78
2023/01/13 04:03:25;;;;;;;;;;;;;;;;;;6243241;23;19912;-79
2023/01/13 04:05:51;;;;;;;;;;;;;;;;;;6243401;23;20283;-79
2023/01/13 04:08:19;;;;;;;;;;;;;;;;;;6219502;23;19911;-80
2023/01/13 04:10:44;;;;;;;;;;;;;;;;;;6244211;23;19911;-76
2023/01/13 04:13:10;;;;;;;;;;;;;;;;;;6241738;23;19922;-79
2023/01/13 04:15:36;;;;;;;;;;;;;;;;;;6217190;23;19934;-79
2023/01/13 04:18:01;;;;;;;;;;;;;;;;;;6245152;23;19923;-80
2023/01/13 04:20:27;;;;;;;;;;;;;;;;;;6246757;23;19965;-80
2023/01/13 04:22:53;;;;;;;;;;;;;;;;;;6248197;23;20285;-81
2023/01/13 04:25:18;;;;;;;;;;;;;;;;;;6220517;23;19942;-80
2023/01/13 04:27:44;;;;;;;;;;;;;;;;;;6221970;23;19912;-80
2023/01/13 04:30:10;;;;;;;;;;;;;;;;;;6242995;23;19915;-79
2023/01/13 04:32:36;;;;;;;;;;;;;;;;;;6246462;23;19911;-83
2023/01/13 04:37:37;;;;;;;;;;;;;;;;;;6237441;22;19924;-82
2023/01/13 04:40:03;;;;;;;;;;;;;;;;;;6230377;23;19991;-83
2023/01/13 04:42:29;;;;;;;;;;;;;;;;;;6212254;23;19911;-81
2023/01/13 04:44:55;;;;;;;;;;;;;;;;;;6236738;23;19931;-83
2023/01/13 04:47:21;;;;;;;;;;;;;;;;;;6180999;23;19916;-81
2023/01/13 04:49:46;;;;;;;;;;;;;;;;;;6233386;23;19904;-83
2023/01/13 04:52:12;;;;;;;;;;;;;;;;;;6208784;23;19919;-82
2023/01/13 04:54:38;;;;;;;;;;;;;;;;;;6231884;23;20364;-82
2023/01/13 04:57:03;;;;;;;;;;;;;;;;;;6235539;23;19927;-83
2023/01/13 04:59:29;;;;;;;;;;;;;;;;;;6236002;23;19919;-81
2023/01/13 05:01:55;;;;;;;;;;;;;;;;;;6233879;23;19907;-81
2023/01/13 05:04:20;;;;;;;;;;;;;;;;;;6232946;23;19922;-83
2023/01/13 05:06:46;;;;;;;;;;;;;;;;;;6233120;23;19935;-81
2023/01/13 05:09:14;;;;;;;;;;;;;;;;;;6195964;23;20518;-82
2023/01/13 05:17:09;;;;;;;;;;;;;;;;;;6226948;23;19926;-80
2023/01/13 05:19:34;;;;;;;;;;;;;;;;;;6236460;23;19908;-84
2023/01/13 05:27:30;;;;;;;;;;;;;;;;;;6235978;23;19912;-83
2023/01/13 05:29:55;;;;;;;;;;;;;;;;;;6237099;22;19900;-83
2023/01/13 05:32:21;;;;;;;;;;;;;;;;;;6234733;23;19896;-84
2023/01/13 05:34:47;;;;;;;;;;;;;;;;;;6235108;22;19943;-82
2023/01/13 05:37:13;;;;;;;;;;;;;;;;;;6268967;22;19953;-83
2023/01/13 05:45:07;;;;;;;;;;;;;;;;;;6266030;22;19915;-83
2023/01/13 05:47:33;;;;;;;;;;;;;;;;;;6268765;23;20358;-82
2023/01/13 05:49:59;;;;;;;;;;;;;;;;;;6268295;23;19911;-82
2023/01/13 05:52:24;;;;;;;;;;;;;;;;;;6260748;23;19985;-82
2023/01/13 05:54:50;;;;;;;;;;;;;;;;;;6229981;23;19912;-82
2023/01/13 05:57:15;;;;;;;;;;;;;;;;;;6236174;23;19926;-82
2023/01/13 05:59:41;;;;;;;;;;;;;;;;;;6262741;23;19931;-82
2023/01/13 06:02:06;;;;;;;;;;;;;;;;;;6265189;23;19911;-82
2023/01/13 06:04:32;;;;;;;;;;;;;;;;;;6266006;23;19962;-81
2023/01/13 06:06:58;;;;;;;;;;;;;;;;;;6264481;23;19911;-83
2023/01/13 06:09:23;;;;;;;;;;;;;;;;;;6231858;23;19922;-81
2023/01/13 06:11:49;;;;;;;;;;;;;;;;;;6247290;23;19922;-82
2023/01/13 06:14:15;;;;;;;;;;;;;;;;;;6250602;23;19956;-82
2023/01/13 06:16:40;;;;;;;;;;;;;;;;;;6253893;23;19919;-81
2023/01/13 06:19:12;;;;;;;;;;;;;;;;;;6250871;23;19911;-80
2023/01/13 06:21:37;;;;;;;;;;;;;;;;;;6222442;23;20002;-80
2023/01/13 06:24:03;;;;;;;;;;;;;;;;;;6255086;23;19911;-80
2023/01/13 06:26:29;;;;;;;;;;;;;;;;;;6232323;23;20344;-80
2023/01/13 06:28:55;;;;;;;;;;;;;;;;;;6257032;23;19911;-82
2023/01/13 06:31:20;;;;;;;;;;;;;;;;;;6260969;23;19912;-81
2023/01/13 06:33:46;;;;;;;;;;;;;;;;;;6254058;23;19911;-79
2023/01/13 06:36:12;;;;;;;;;;;;;;;;;;6226080;23;19919;-81
2023/01/13 06:38:37;;;;;;;;;;;;;;;;;;6262508;23;19922;-82
2023/01/13 06:41:03;;;;;;;;;;;;;;;;;;6254627;23;19915;-77
2023/01/13 06:43:29;;;;;;;;;;;;;;;;;;6245841;23;19919;-79
2023/01/13 06:45:54;;;;;;;;;;;;;;;;;;6224009;23;20403;-82
2023/01/13 06:48:20;;;;;;;;;;;;;;;;;;6263498;23;19938;-82
2023/01/13 06:50:46;;;;;;;;;;;;;;;;;;6261255;23;19912;-82
2023/01/13 06:53:11;;;;;;;;;;;;;;;;;;6254652;23;19922;-81
2023/01/13 06:55:37;;;;;;;;;;;;;;;;;;6253199;23;19919;-81
2023/01/13 06:58:03;;;;;;;;;;;;;;;;;;6224970;23;19924;-80
2023/01/13 07:00:28;;;;;;;;;;;;;;;;;;6252439;23;19911;-80
2023/01/13 07:02:54;;;;;;;;;;;;;;;;;;6225796;23;19957;-81
2023/01/13 07:05:20;;;;;;;;;;;;;;;;;;6232788;23;20308;-81
2023/01/13 07:07:45;;;;;;;;;;;;;;;;;;6233948;23;19911;-82
2023/01/13 07:10:12;;;;;;;;;;;;;;;;;;6255532;23;19956;-81
2023/01/13 07:15:17;;;;;;;;;;;;;;;;;;6252659;23;19911;-81
2023/01/13 07:15:23;;;;;;;;;;;;;;;;;;6251622;23;19922;-81
2023/01/13 07:17:49;;;;;;;;;;;;;;;;;;6225947;23;19955;-80
2023/01/13 07:20:15;;;;;;;;;;;;;;;;;;6251649;23;20299;-81
2023/01/13 07:22:40;;;;;;;;;;;;;;;;;;6252694;23;19922;-81
2023/01/13 07:25:07;;;;;;;;;;;;;;;;;;6250264;23;19911;-81
2023/01/13 07:27:32;;;;;;;;;;;;;;;;;;6251362;23;19912;-81
2023/01/13 07:29:58;;;;;;;;;;;;;;;;;;6251398;23;20395;-80
2023/01/13 07:32:23;;;;;;;;;;;;;;;;;;6247593;23;19919;-80
2023/01/13 07:34:49;;;;;;;;;;;;;;;;;;6234772;23;19930;-78
2023/01/13 07:37:15;;;;;;;;;;;;;;;;;;6209788;23;19926;-79
2023/01/13 07:39:40;;;;;;;;;;;;;;;;;;6214282;23;19912;-79
2023/01/13 07:44:50;;;;;;;;;;;;;;;;;;6213582;23;19912;-79
2023/01/13 07:47:16;;;;;;;;;;;;;;;;;;6211832;23;19974;-79
2023/01/13 07:49:42;;;;;;;;;;;;;;;;;;6212972;23;19956;-79
2023/01/13 07:52:08;;;;;;;;;;;;;;;;;;6211607;23;19912;-78
2023/01/13 07:54:34;;;;;;;;;;;;;;;;;;6212795;23;20316;-78
2023/01/13 07:57:00;;;;;;;;;;;;;;;;;;6212282;23;19962;-78
2023/01/13 07:59:26;;;;;;;;;;;;;;;;;;6212655;23;19939;-77
2023/01/13 08:01:51;;;;;;;;;;;;;;;;;;6212060;23;19912;-77
2023/01/13 08:04:17;;;;;;;;;;;;;;;;;;6211574;23;19958;-77
2023/01/13 08:06:43;;;;;;;;;;;;;;;;;;6211375;23;19916;-77
2023/01/13 08:09:09;;;;;;;;;;;;;;;;;;6184820;23;19919;-78
2023/01/13 08:11:34;;;;;;;;;;;;;;;;;;6185785;23;19923;-78
2023/01/13 08:14:00;;;;;;;;;;;;;;;;;;6185240;23;19967;-78
2023/01/13 08:16:25;;;;;;;;;;;;;;;;;;6212427;23;19916;-79
2023/01/13 08:18:51;;;;;;;;;;;;;;;;;;6213362;23;19979;-81
2023/01/13 08:21:17;;;;;;;;;;;;;;;;;;6213197;23;19920;-79
2023/01/13 08:23:42;;;;;;;;;;;;;;;;;;6190094;23;19996;-78
2023/01/13 08:26:08;;;;;;;;;;;;;;;;;;6217503;23;19912;-82
2023/01/13 08:28:33;;;;;;;;;;;;;;;;;;6195336;23;19912;-81
2023/01/13 08:30:59;;;;;;;;;;;;;;;;;;6222869;23;19912;-80
2023/01/13 08:33:25;;;;;;;;;;;;;;;;;;6198754;23;19912;-78
2023/01/13 08:35:52;;;;;;;;;;;;;;;;;;6232286;23;19920;-77
2023/01/13 08:38:17;;;;;;;;;;;;;;;;;;6241800;23;19919;-78
2023/01/13 08:40:43;;;;;;;;;;;;;;;;;;6243180;23;19911;-76
2023/01/13 08:43:09;;;;;;;;;;;;;;;;;;6246650;23;19908;-80
2023/01/13 08:45:35;;;;;;;;;;;;;;;;;;6222494;23;20264;-80
2023/01/13 08:48:00;;;;;;;;;;;;;;;;;;6248065;23;19935;-79
2023/01/13 08:50:26;;;;;;;;;;;;;;;;;;6245826;23;19989;-79
2023/01/13 08:52:52;;;;;;;;;;;;;;;;;;6246442;23;19912;-80
2023/01/13 08:55:17;;;;;;;;;;;;;;;;;;6246421;23;19939;-79
2023/01/13 08:57:43;;;;;;;;;;;;;;;;;;6247713;23;20422;-80
2023/01/13 09:00:08;;;;;;;;;;;;;;;;;;6248422;23;20359;-80
2023/01/13 09:02:34;;;;;;;;;;;;;;;;;;6246937;23;19911;-80
2023/01/13 09:05:02;;;;;;;;;;;;;;;;;;6219193;23;19916;-79
2023/01/13 09:07:28;;;;;;;;;;;;;;;;;;6247847;23;19912;-80
2023/01/13 09:09:55;;;;;;;;;;;;;;;;;;6244663;23;20551;-80
2023/01/13 09:15:05;;;;;;;;;;;;;;;;;;6246974;23;19927;-79
2023/01/13 09:17:31;;;;;;;;;;;;;;;;;;6248038;23;19920;-79
2023/01/13 09:19:57;;;;;;;;;;;;;;;;;;6249983;23;19989;-79
2023/01/13 09:22:25;;;;;;;;;;;;;;;;;;6246587;23;19974;-79
2023/01/13 09:24:51;;;;;;;;;;;;;;;;;;6245989;23;19938;-80
2023/01/13 09:27:17;;;;;;;;;;;;;;;;;;6244105;23;19911;-80
2023/01/13 09:29:42;;;;;;;;;;;;;;;;;;6253738;23;20178;-81
2023/01/13 09:32:08;;;;;;;;;;;;;;;;;;6253132;23;19993;-81
2023/01/13 09:37:18;;;;;;;;;;;;;;;;;;6248986;23;19942;-81
2023/01/13 09:39:44;;;;;;;;;;;;;;;;;;6249899;23;19911;-81
2023/01/13 09:44:54;;;;;;;;;;;;;;;;;;6247190;23;19933;-79
2023/01/13 09:47:20;;;;;;;;;;;;;;;;;;6246897;23;19919;-79
2023/01/13 09:49:45;;;;;;;;;;;;;;;;;;6225185;23;19939;-80
2023/01/13 09:52:12;;;;;;;;;;;;;;;;;;6254198;23;19911;-78
2023/01/13 09:54:38;;;;;;;;;;;;;;;;;;6255873;23;19919;-80
2023/01/13 09:57:04;;;;;;;;;;;;;;;;;;6259472;23;20057;-79
2023/01/13 09:59:31;;;;;;;;;;;;;;;;;;6257904;23;19942;-80
2023/01/13 10:01:58;;;;;;;;;;;;;;;;;;6258486;23;19912;-80
2023/01/13 10:04:23;;;;;;;;;;;;;;;;;;6232471;23;19927;-81
2023/01/13 10:06:49;;;;;;;;;;;;;;;;;;6257139;23;19942;-78
2023/01/13 10:09:15;;;;;;;;;;;;;;;;;;6230832;23;19912;-80
2023/01/13 10:14:25;;;;;;;;;;;;;;;;;;6257518;23;19977;-80
2023/01/13 10:16:51;;;;;;;;;;;;;;;;;;6230100;23;19923;-79
2023/01/13 10:19:17;;;;;;;;;;;;;;;;;;6250289;23;20444;-79
2023/01/13 10:21:42;;;;;;;;;;;;;;;;;;6196812;23;20356;-80
2023/01/13 10:24:08;;;;;;;;;;;;;;;;;;6223891;23;19911;-80
2023/01/13 10:26:34;;;;;;;;;;;;;;;;;;6225646;23;19918;-79
2023/01/13 10:28:59;;;;;;;;;;;;;;;;;;6223345;23;19912;-81
2023/01/13 10:31:25;;;;;;;;;;;;;;;;;;6256454;23;19919;-80
2023/01/13 10:33:51;;;;;;;;;;;;;;;;;;6182058;23;19934;-80
2023/01/13 10:36:16;;;;;;;;;;;;;;;;;;6260348;23;19919;-80
2023/01/13 10:38:42;;;;;;;;;;;;;;;;;;6260700;23;19939;-79
2023/01/13 10:41:07;;;;;;;;;;;;;;;;;;6255990;23;19919;-80
2023/01/13 10:43:33;;;;;;;;;;;;;;;;;;6231491;23;19912;-80
2023/01/13 10:45:59;;;;;;;;;;;;;;;;;;6255508;23;19918;-79
2023/01/13 10:48:24;;;;;;;;;;;;;;;;;;6257716;23;19919;-78
2023/01/13 10:50:50;;;;;;;;;;;;;;;;;;6254490;23;19935;-77
2023/01/13 10:53:16;;;;;;;;;;;;;;;;;;6229051;23;19916;-79
2023/01/13 10:55:42;;;;;;;;;;;;;;;;;;6229316;23;19919;-80
2023/01/13 10:58:08;;;;;;;;;;;;;;;;;;6253589;23;19923;-74
2023/01/13 11:00:34;;;;;;;;;;;;;;;;;;6255181;23;19926;-78
2023/01/13 11:02:59;;;;;;;;;;;;;;;;;;6223135;23;19981;-75
2023/01/13 11:05:25;;;;;;;;;;;;;;;;;;6222862;23;19919;-76
2023/01/13 11:07:53;;;;;;;;;;;;;;;;;;6251089;23;19911;-77
2023/01/13 11:10:19;;;;;;;;;;;;;;;;;;6251545;23;19919;-78
2023/01/13 11:12:44;;;;;;;;;;;;;;;;;;6255314;23;19912;-78
2023/01/13 11:15:10;;;;;;;;;;;;;;;;;;6254986;23;20336;-77
2023/01/13 11:17:38;;;;;;;;;;;;;;;;;;6253679;23;19919;-78
2023/01/13 11:20:03;;;;;;;;;;;;;;;;;;6226377;23;19963;-78
2023/01/13 11:22:29;;;;;;;;;;;;;;;;;;6250838;23;20337;-79
2023/01/13 11:24:55;;;;;;;;;;;;;;;;;;6257365;23;20385;-79
2023/01/13 11:27:20;;;;;;;;;;;;;;;;;;6255896;23;19918;-78
2023/01/13 11:29:46;;;;;;;;;;;;;;;;;;6256973;23;19952;-78
2023/01/13 11:32:11;;;;;;;;;;;;;;;;;;6238141;23;19911;-80
2023/01/13 11:34:37;;;;;;;;;;;;;;;;;;6258549;23;20420;-79
2023/01/13 11:37:03;;;;;;;;;;;;;;;;;;6257207;23;19978;-78
2023/01/13 11:39:28;;;;;;;;;;;;;;;;;;6227829;23;19918;-79
2023/01/13 11:44:39;;;;;;;;;;;;;;;;;;6234646;23;19919;-81
2023/01/13 11:47:05;;;;;;;;;;;;;;;;;;6208915;23;19916;-81
2023/01/13 11:49:30;;;;;;;;;;;;;;;;;;6234239;23;19912;-79
2023/01/13 11:51:56;;;;;;;;;;;;;;;;;;6235767;23;19911;-82
2023/01/13 11:54:23;;;;;;;;;;;;;;;;;;6238005;23;19911;-81
2023/01/13 11:56:48;;;;;;;;;;;;;;;;;;6235228;23;20516;-82
2023/01/13 11:59:14;;;;;;;;;;;;;;;;;;6228616;23;19952;-78
2023/01/13 12:01:39;;;;;;;;;;;;;;;;;;6226296;23;19991;-76
2023/01/13 12:04:05;;;;;;;;;;;;;;;;;;6224532;23;19912;-78
2023/01/13 12:06:31;;;;;;;;;;;;;;;;;;6224220;23;19999;-77
2023/01/13 12:08:56;;;;;;;;;;;;;;;;;;6217263;23;20296;-79
2023/01/13 12:11:22;;;;;;;;;;;;;;;;;;6214259;23;20389;-78
2023/01/13 12:13:48;;;;;;;;;;;;;;;;;;6215946;23;19911;-79
2023/01/13 12:16:14;;;;;;;;;;;;;;;;;;6216033;23;19951;-79
2023/01/13 12:18:40;;;;;;;;;;;;;;;;;;6215983;23;19986;-78
2023/01/13 12:21:06;;;;;;;;;;;;;;;;;;6213756;23;19919;-77
2023/01/13 12:23:31;;;;;;;;;;;;;;;;;;6213689;23;19912;-79
2023/01/13 12:25:57;;;;;;;;;;;;;;;;;;6215532;23;19912;-80
2023/01/13 12:28:22;;;;;;;;;;;;;;;;;;6214603;23;19912;-79
2023/01/13 12:30:49;;;;;;;;;;;;;;;;;;6212497;23;20345;-80
2023/01/13 12:33:18;;;;;;;;;;;;;;;;;;6210473;23;19974;-79
2023/01/13 12:35:44;;;;;;;;;;;;;;;;;;6161953;23;19962;-80
2023/01/13 12:38:10;;;;;;;;;;;;;;;;;;6213062;23;19920;-80
2023/01/13 12:40:37;;;;;;;;;;;;;;;;;;6212199;23;19911;-79
2023/01/13 12:45:47;;;;;;;;;;;;;;;;;;6209943;23;19911;-80
2023/01/13 12:48:12;;;;;;;;;;;;;;;;;;6212011;23;19918;-80
2023/01/13 12:50:39;;;;;;;;;;;;;;;;;;6210379;23;19912;-79
2023/01/13 12:53:05;;;;;;;;;;;;;;;;;;6211009;23;20328;-78
2023/01/13 12:55:30;;;;;;;;;;;;;;;;;;6211236;23;19912;-79
2023/01/13 12:57:56;;;;;;;;;;;;;;;;;;6212751;23;19926;-80
2023/01/13 13:00:22;;;;;;;;;;;;;;;;;;6212876;23;19916;-81
2023/01/13 13:02:47;;;;;;;;;;;;;;;;;;6212167;23;20265;-81
2023/01/13 13:05:14;;;;;;;;;;;;;;;;;;6212233;23;19912;-82
2023/01/13 13:07:39;;;;;;;;;;;;;;;;;;6214227;23;19912;-81
2023/01/13 13:10:05;;;;;;;;;;;;;;;;;;6212961;23;20326;-80
2023/01/13 13:15:15;;;;;;;;;;;;;;;;;;6211569;23;19920;-79
2023/01/13 13:17:41;;;;;;;;;;;;;;;;;;6214158;23;20365;-80
2023/01/13 13:20:06;;;;;;;;;;;;;;;;;;6212315;23;19951;-81
2023/01/13 13:22:32;;;;;;;;;;;;;;;;;;6212524;23;19912;-79
2023/01/13 13:24:58;;;;;;;;;;;;;;;;;;6212360;23;19912;-81
2023/01/13 13:27:23;;;;;;;;;;;;;;;;;;6212797;23;19947;-80
2023/01/13 13:29:49;;;;;;;;;;;;;;;;;;6214117;23;20321;-80
2023/01/13 13:32:15;;;;;;;;;;;;;;;;;;6215475;23;19919;-81
2023/01/13 13:34:40;;;;;;;;;;;;;;;;;;6214049;23;19962;-81
2023/01/13 13:37:06;;;;;;;;;;;;;;;;;;6213847;23;19987;-80
2023/01/13 13:47:45;;;;;;;;;;;;;;;;;;6213831;23;19969;-80
2023/01/13 13:50:10;;;;;;;;;;;;;;;;;;6215542;23;19951;-82
2023/01/13 13:52:36;;;;;;;;;;;;;;;;;;6216422;23;19916;-83
2023/01/13 13:55:03;;;;;;;;;;;;;;;;;;6222279;23;19912;-82
2023/01/13 13:57:28;;;;;;;;;;;;;;;;;;6197843;23;19946;-82
2023/01/13 13:59:54;;;;;;;;;;;;;;;;;;6194894;23;19959;-84
2023/01/13 14:02:20;;;;;;;;;;;;;;;;;;6232567;23;19923;-84
2023/01/13 14:04:46;;;;;;;;;;;;;;;;;;6234711;23;19940;-85
2023/01/13 14:07:12;;;;;;;;;;;;;;;;;;6233005;23;20411;-83
2023/01/13 14:09:37;;;;;;;;;;;;;;;;;;6231758;23;19912;-85
2023/01/13 14:12:03;;;;;;;;;;;;;;;;;;6234200;23;19912;-83
2023/01/13 14:14:28;;;;;;;;;;;;;;;;;;6235882;23;19938;-84
2023/01/13 14:16:54;;;;;;;;;;;;;;;;;;6238829;23;19927;-84
2023/01/13 14:19:20;;;;;;;;;;;;;;;;;;6203889;23;19987;-82
2023/01/13 14:21:45;;;;;;;;;;;;;;;;;;6240639;23;19952;-86
2023/01/13 14:24:11;;;;;;;;;;;;;;;;;;6236593;23;19978;-84
2023/01/13 14:26:36;;;;;;;;;;;;;;;;;;6230804;23;19911;-83
2023/01/13 14:29:02;;;;;;;;;;;;;;;;;;6227827;23;19912;-83
2023/01/13 14:31:28;;;;;;;;;;;;;;;;;;6230702;23;20003;-83
2023/01/13 14:33:54;;;;;;;;;;;;;;;;;;6232115;23;19923;-83
2023/01/13 14:36:19;;;;;;;;;;;;;;;;;;6234088;23;19957;-84
2023/01/13 14:38:45;;;;;;;;;;;;;;;;;;6233289;23;19916;-83
2023/01/13 14:41:11;;;;;;;;;;;;;;;;;;6231203;23;19912;-84
2023/01/13 14:43:36;;;;;;;;;;;;;;;;;;6232536;23;19919;-82
2023/01/13 14:46:02;;;;;;;;;;;;;;;;;;6237567;23;19896;-85
2023/01/13 14:48:30;;;;;;;;;;;;;;;;;;6204231;22;21427;-79
2023/01/13 14:53:37;;;;;;;;;;;;;;;;;;6255345;22;19912;-85
2023/01/13 14:56:03;;;;;;;;;;;;;;;;;;6266448;23;19911;-84
2023/01/13 14:58:29;;;;;;;;;;;;;;;;;;6246765;23;19915;-86
2023/01/13 15:00:54;;;;;;;;;;;;;;;;;;6273845;22;19895;-85
2023/01/13 15:03:20;;;;;;;;;;;;;;;;;;6274288;22;19916;-84
2023/01/13 15:05:49;;;;;;;;;;;;;;;;;;6230778;23;19912;-82
2023/01/13 15:08:16;;;;;;;;;;;;;;;;;;6254754;23;19970;-81
2023/01/13 15:13:39;;;;;;;;;;;;;;;;;;6221073;22;20033;-80
2023/01/13 15:16:06;;;;;;;;;;;;;;;;;;6257612;22;19907;-85
2023/01/13 15:21:20;;;;;;;;;;;;;;;;;;6206630;22;19950;-83
2023/01/13 15:23:46;;;;;;;;;;;;;;;;;;6181230;23;19955;-84
2023/01/13 15:26:12;;;;;;;;;;;;;;;;;;6196880;23;19912;-84
2023/01/13 15:28:38;;;;;;;;;;;;;;;;;;6199776;23;19912;-84
2023/01/13 15:31:03;;;;;;;;;;;;;;;;;;6174302;23;19913;-83
2023/01/13 15:33:29;;;;;;;;;;;;;;;;;;6194260;23;19912;-84
2023/01/13 15:35:55;;;;;;;;;;;;;;;;;;6167056;23;20404;-83
2023/01/13 15:38:20;;;;;;;;;;;;;;;;;;6151747;23;19970;-84
2023/01/13 15:40:46;;;;;;;;;;;;;;;;;;6177613;23;19943;-83
2023/01/13 15:48:41;;;;;;;;;;;;;;;;;;6205722;23;19916;-84
2023/01/13 15:51:07;;;;;;;;;;;;;;;;;;6209833;23;19903;-84
2023/01/13 15:53:35;;;;;;;;;;;;;;;;;;6202989;23;19912;-84
2023/01/13 15:56:01;;;;;;;;;;;;;;;;;;6177362;23;19923;-85
2023/01/13 15:58:28;;;;;;;;;;;;;;;;;;6199749;23;19924;-84
2023/01/13 16:00:57;;;;;;;;;;;;;;;;;;6171502;23;20372;-83
2023/01/13 16:03:23;;;;;;;;;;;;;;;;;;6173040;23;19897;-84
2023/01/13 16:05:48;;;;;;;;;;;;;;;;;;6201551;23;19928;-86
2023/01/13 16:08:14;;;;;;;;;;;;;;;;;;6174509;23;19912;-85
2023/01/13 16:10:40;;;;;;;;;;;;;;;;;;6198263;23;19912;-86
2023/01/13 16:13:06;;;;;;;;;;;;;;;;;;6200071;23;19912;-86
2023/01/13 16:15:31;;;;;;;;;;;;;;;;;;6201247;23;20288;-85
2023/01/13 16:17:57;;;;;;;;;;;;;;;;;;6150534;23;19920;-84
2023/01/13 16:20:23;;;;;;;;;;;;;;;;;;6177408;23;20472;-84
2023/01/13 16:22:49;;;;;;;;;;;;;;;;;;6177569;23;19981;-86
2023/01/13 16:25:15;;;;;;;;;;;;;;;;;;6178294;23;20413;-85
2023/01/13 16:27:40;;;;;;;;;;;;;;;;;;6180427;23;19927;-84
2023/01/13 16:30:07;;;;;;;;;;;;;;;;;;6157526;23;19904;-85
2023/01/13 16:32:32;;;;;;;;;;;;;;;;;;6181743;23;19912;-84
2023/01/13 16:34:58;;;;;;;;;;;;;;;;;;6204237;23;20412;-85
2023/01/13 16:37:24;;;;;;;;;;;;;;;;;;6129422;23;19920;-85
2023/01/13 16:39:50;;;;;;;;;;;;;;;;;;6204552;23;19959;-85
2023/01/13 16:42:15;;;;;;;;;;;;;;;;;;6206553;23;19912;-85
2023/01/13 16:44:41;;;;;;;;;;;;;;;;;;6204204;23;19968;-85
2023/01/13 16:47:07;;;;;;;;;;;;;;;;;;6204714;23;19919;-87
2023/01/13 16:49:33;;;;;;;;;;;;;;;;;;6207968;23;19923;-84
2023/01/13 16:51:59;;;;;;;;;;;;;;;;;;6207870;23;19912;-86
2023/01/13 16:54:24;;;;;;;;;;;;;;;;;;6209971;23;19936;-87
2023/01/13 16:56:50;;;;;;;;;;;;;;;;;;6185102;23;19964;-86
2023/01/13 16:59:16;;;;;;;;;;;;;;;;;;6205563;23;20342;-80
2023/01/13 17:09:46;;;;;;;;;;;;;;;;;;6230406;22;19923;-87
2023/01/13 17:12:12;;;;;;;;;;;;;;;;;;6273359;22;19899;-85
2023/01/13 17:17:20;;;;;;;;;;;;;;;;;;6243193;22;19943;-85
2023/01/13 17:19:46;;;;;;;;;;;;;;;;;;6192750;23;19908;-86
2023/01/13 17:22:11;;;;;;;;;;;;;;;;;;6212429;23;19903;-84
2023/01/13 17:24:37;;;;;;;;;;;;;;;;;;6212052;23;19896;-85
2023/01/13 17:27:03;;;;;;;;;;;;;;;;;;6204835;23;19924;-83
2023/01/13 17:29:29;;;;;;;;;;;;;;;;;;6182624;23;19952;-84
2023/01/13 17:31:55;;;;;;;;;;;;;;;;;;6181400;23;19901;-84
2023/01/13 17:34:21;;;;;;;;;;;;;;;;;;6183188;23;19935;-84
2023/01/13 17:36:46;;;;;;;;;;;;;;;;;;6163357;22;19934;-81
2023/01/13 17:39:12;;;;;;;;;;;;;;;;;;6232838;23;19919;-85
2023/01/13 17:41:38;;;;;;;;;;;;;;;;;;6241398;23;19907;-84
2023/01/13 17:44:04;;;;;;;;;;;;;;;;;;6215116;23;19927;-83
2023/01/13 17:46:29;;;;;;;;;;;;;;;;;;6240674;23;19920;-83
2023/01/13 17:48:55;;;;;;;;;;;;;;;;;;6241848;23;19916;-83
2023/01/13 17:51:21;;;;;;;;;;;;;;;;;;6239437;23;19916;-83
2023/01/13 17:53:47;;;;;;;;;;;;;;;;;;6214719;23;19920;-83
2023/01/13 17:56:12;;;;;;;;;;;;;;;;;;6242432;23;19910;-84
2023/01/13 17:58:39;;;;;;;;;;;;;;;;;;6241630;23;19908;-84
2023/01/13 18:01:04;;;;;;;;;;;;;;;;;;6241569;23;19920;-84